createdAt,value
2018-07-04T00:00:59.817Z,64.95
2018-07-04T00:01:59.966Z,65.42
2018-07-04T00:03:00.122Z,65.61
2018-07-04T00:04:00.272Z,65.04
2018-07-04T00:05:00.426Z,65.04
2018-07-04T00:06:00.580Z,65.42
2018-07-04T00:07:00.733Z,64.95
2018-07-04T00:08:00.886Z,65.23
2018-07-04T00:09:01.038Z,65.23
2018-07-04T00:10:01.193Z,65.04
2018-07-04T00:11:01.343Z,65.04
2018-07-04T00:12:01.497Z,65.42
2018-07-04T00:13:01.659Z,65.14
2018-07-04T00:14:01.803Z,65.23
2018-07-04T00:15:01.955Z,65.23
2018-07-04T00:16:02.111Z,65.52
2018-07-04T00:17:02.261Z,65.90
2018-07-04T00:18:02.414Z,65.61
2018-07-04T00:19:02.566Z,65.81
2018-07-04T00:20:02.719Z,65.81
2018-07-04T00:21:02.873Z,66.28
2018-07-04T00:22:03.031Z,66.28
2018-07-04T00:23:03.179Z,66.86
2018-07-04T00:24:03.333Z,67.11
2018-07-04T00:25:03.485Z,66.73
2018-07-04T00:26:03.643Z,66.92
2018-07-04T00:27:03.796Z,67.49
2018-07-04T00:28:03.949Z,67.30
2018-07-04T00:29:04.101Z,67.40
2018-07-04T00:30:04.253Z,68.07
2018-07-04T00:31:04.409Z,68.07
2018-07-04T00:32:04.560Z,67.97
2018-07-04T00:33:04.714Z,68.35
2018-07-04T00:34:04.862Z,67.88
2018-07-04T00:35:05.015Z,67.59
2018-07-04T00:36:05.168Z,68.26
2018-07-04T00:37:05.321Z,68.35
2018-07-04T00:38:05.474Z,68.35
2018-07-04T00:39:05.622Z,68.35
2018-07-04T00:40:05.776Z,68.45
2018-07-04T00:41:05.928Z,68.26
2018-07-04T00:42:06.079Z,67.78
2018-07-04T00:43:06.232Z,67.40
2018-07-04T00:44:06.385Z,66.83
2018-07-04T00:45:06.538Z,66.92
2018-07-04T00:46:06.689Z,66.35
2018-07-04T00:47:06.844Z,67.02
2018-07-04T00:48:06.996Z,67.40
2018-07-04T00:49:07.148Z,67.97
2018-07-04T00:50:07.300Z,68.55
2018-07-04T00:51:07.452Z,68.64
2018-07-04T00:52:07.608Z,68.74
2018-07-04T00:53:07.759Z,68.16
2018-07-04T00:54:07.909Z,68.07
2018-07-04T00:55:08.062Z,68.35
2018-07-04T00:56:08.216Z,69.31
2018-07-04T00:57:08.372Z,68.74
2018-07-04T00:58:08.520Z,69.85
2018-07-04T00:59:08.673Z,69.76
2018-07-04T01:00:08.825Z,70.23
2018-07-04T01:01:08.978Z,70.42
2018-07-04T01:02:09.130Z,70.71
2018-07-04T01:03:09.280Z,70.33
2018-07-04T01:04:09.435Z,70.04
2018-07-04T01:05:09.587Z,70.81
2018-07-04T01:06:09.739Z,70.42
2018-07-04T01:07:09.894Z,70.71
2018-07-04T01:08:10.046Z,71.06
2018-07-04T01:09:10.198Z,71.09
2018-07-04T01:10:10.350Z,71.92
2018-07-04T01:11:10.502Z,72.11
2018-07-04T01:12:10.653Z,72.49
2018-07-04T01:13:10.807Z,72.68
2018-07-04T01:14:10.960Z,72.39
2018-07-04T01:15:11.109Z,72.49
2018-07-04T01:16:11.264Z,72.24
2018-07-04T01:17:11.415Z,72.05
2018-07-04T01:18:11.572Z,72.68
2018-07-04T01:19:11.721Z,72.87
2018-07-04T01:20:11.872Z,72.87
2018-07-04T01:21:12.025Z,73.25
2018-07-04T01:22:12.177Z,73.63
2018-07-04T01:23:12.329Z,73.63
2018-07-04T01:24:12.479Z,73.83
2018-07-04T01:25:12.632Z,73.60
2018-07-04T01:26:12.786Z,74.21
2018-07-04T01:27:12.942Z,74.46
2018-07-04T01:28:13.096Z,74.46
2018-07-04T01:29:13.245Z,74.55
2018-07-04T01:30:13.397Z,74.93
2018-07-04T01:31:13.549Z,74.84
2018-07-04T01:32:13.703Z,75.03
2018-07-04T01:33:13.853Z,75.22
2018-07-04T01:34:14.006Z,75.32
2018-07-04T01:35:14.158Z,75.42
2018-07-04T01:36:14.310Z,75.60
2018-07-04T01:37:14.465Z,75.79
2018-07-04T01:38:14.617Z,75.22
2018-07-04T01:39:14.771Z,75.60
2018-07-04T01:40:14.921Z,75.22
2018-07-04T01:41:15.072Z,75.98
2018-07-04T01:42:15.224Z,76.37
2018-07-04T01:43:15.377Z,76.65
2018-07-04T01:44:15.530Z,76.46
2018-07-04T01:45:15.680Z,76.65
2018-07-04T01:46:15.833Z,77.61
2018-07-04T01:47:15.984Z,76.46
2018-07-04T01:48:16.135Z,77.03
2018-07-04T01:49:16.289Z,77.42
2018-07-04T01:50:16.440Z,77.61
2018-07-04T01:51:16.592Z,77.03
2018-07-04T01:52:16.743Z,77.89
2018-07-04T01:53:16.895Z,77.42
2018-07-04T01:54:17.047Z,77.42
2018-07-04T01:55:17.200Z,77.03
2018-07-04T01:56:17.351Z,76.56
2018-07-04T01:57:17.503Z,77.61
2018-07-04T01:58:17.657Z,77.13
2018-07-04T01:59:17.809Z,77.61
2018-07-04T02:00:17.959Z,77.23
2018-07-04T02:01:18.115Z,77.80
2018-07-04T02:02:18.265Z,77.42
2018-07-04T02:03:18.414Z,76.75
2018-07-04T02:04:18.569Z,76.65
2018-07-04T02:05:18.721Z,77.42
2018-07-04T02:06:18.875Z,77.57
2018-07-04T02:07:19.027Z,77.47
2018-07-04T02:08:19.179Z,77.00
2018-07-04T02:09:19.329Z,77.47
2018-07-04T02:10:19.479Z,77.76
2018-07-04T02:11:19.632Z,78.23
2018-07-04T02:12:19.782Z,77.95
2018-07-04T02:13:19.936Z,78.33
2018-07-04T02:14:20.087Z,78.23
2018-07-04T02:15:20.238Z,78.52
2018-07-04T02:16:20.390Z,79.00
2018-07-04T02:17:20.539Z,79.00
2018-07-04T02:18:20.688Z,79.10
2018-07-04T02:19:20.834Z,79.38
2018-07-04T02:20:20.986Z,79.19
2018-07-04T02:21:21.136Z,79.57
2018-07-04T02:22:21.291Z,79.19
2018-07-04T02:23:21.441Z,79.48
2018-07-04T02:24:21.594Z,79.67
2018-07-04T02:25:21.746Z,79.57
2018-07-04T02:26:21.898Z,79.96
2018-07-04T02:27:22.050Z,80.43
2018-07-04T02:28:22.202Z,80.24
2018-07-04T02:29:22.354Z,80.62
2018-07-04T02:30:22.513Z,80.96
2018-07-04T02:31:22.658Z,81.48
2018-07-04T02:32:22.811Z,81.06
2018-07-04T02:33:22.960Z,80.87
2018-07-04T02:34:23.114Z,81.15
2018-07-04T02:35:23.262Z,81.35
2018-07-04T02:36:23.416Z,81.06
2018-07-04T02:37:23.569Z,81.35
2018-07-04T02:38:23.721Z,80.81
2018-07-04T02:39:23.874Z,80.05
2018-07-04T02:40:24.025Z,79.67
2018-07-04T02:41:24.177Z,79.57
2018-07-04T02:42:24.334Z,79.19
2018-07-04T02:43:24.480Z,78.91
2018-07-04T02:44:24.632Z,79.19
2018-07-04T02:45:24.785Z,79.48
2018-07-04T02:46:24.938Z,79.48
2018-07-04T02:47:25.093Z,79.86
2018-07-04T02:48:25.256Z,79.96
2018-07-04T02:49:25.387Z,80.05
2018-07-04T02:50:25.542Z,80.24
2018-07-04T02:51:25.693Z,79.77
2018-07-04T02:52:25.845Z,80.33
2018-07-04T02:53:25.995Z,80.33
2018-07-04T02:54:26.149Z,80.24
2018-07-04T02:55:26.300Z,80.15
2018-07-04T02:56:26.456Z,80.15
2018-07-04T02:57:26.605Z,79.96
2018-07-04T02:58:26.756Z,80.53
2018-07-04T02:59:26.910Z,80.53
2018-07-04T03:00:27.058Z,81.20
2018-07-04T03:01:27.212Z,80.81
2018-07-04T03:02:27.368Z,80.91
2018-07-04T03:03:27.519Z,81.29
2018-07-04T03:04:27.669Z,81.01
2018-07-04T03:05:27.819Z,80.72
2018-07-04T03:06:27.970Z,81.58
2018-07-04T03:07:28.122Z,81.20
2018-07-04T03:08:28.275Z,81.77
2018-07-04T03:09:28.430Z,81.77
2018-07-04T03:10:28.578Z,81.58
2018-07-04T03:11:28.737Z,80.72
2018-07-04T03:12:28.881Z,81.20
2018-07-04T03:13:29.036Z,81.58
2018-07-04T03:14:29.186Z,81.67
2018-07-04T03:15:29.338Z,81.20
2018-07-04T03:16:29.490Z,81.38
2018-07-04T03:17:29.647Z,81.82
2018-07-04T03:18:29.794Z,81.92
2018-07-04T03:19:29.950Z,82.49
2018-07-04T03:20:30.099Z,83.06
2018-07-04T03:21:30.252Z,82.87
2018-07-04T03:22:30.402Z,82.68
2018-07-04T03:23:30.555Z,82.59
2018-07-04T03:24:30.705Z,82.87
2018-07-04T03:25:30.857Z,82.59
2018-07-04T03:26:31.012Z,83.06
2018-07-04T03:27:31.161Z,82.87
2018-07-04T03:28:31.309Z,82.59
2018-07-04T03:29:31.461Z,82.30
2018-07-04T03:30:31.615Z,81.82
2018-07-04T03:31:31.764Z,81.67
2018-07-04T03:32:31.916Z,81.77
2018-07-04T03:33:32.068Z,81.38
2018-07-04T03:34:32.221Z,81.38
2018-07-04T03:35:32.375Z,81.38
2018-07-04T03:36:32.530Z,82.06
2018-07-04T03:37:32.679Z,81.29
2018-07-04T03:38:32.827Z,81.20
2018-07-04T03:39:32.975Z,80.91
2018-07-04T03:40:33.128Z,80.81
2018-07-04T03:41:33.278Z,81.20
2018-07-04T03:42:33.429Z,81.29
2018-07-04T03:43:33.581Z,81.20
2018-07-04T03:44:33.736Z,81.20
2018-07-04T03:45:33.885Z,81.10
2018-07-04T03:46:34.038Z,81.58
2018-07-04T03:47:34.190Z,81.20
2018-07-04T03:48:34.343Z,81.20
2018-07-04T03:49:34.494Z,80.53
2018-07-04T03:50:34.645Z,80.15
2018-07-04T03:51:34.797Z,80.43
2018-07-04T03:52:34.948Z,80.57
2018-07-04T03:53:35.099Z,80.72
2018-07-04T03:54:35.250Z,80.91
2018-07-04T03:55:35.402Z,80.76
2018-07-04T03:56:35.553Z,81.10
2018-07-04T03:57:35.707Z,80.53
2018-07-04T03:58:35.859Z,81.38
2018-07-04T03:59:36.010Z,81.67
2018-07-04T04:00:36.162Z,81.67
2018-07-04T04:01:36.314Z,81.04
2018-07-04T04:02:36.466Z,79.80
2018-07-04T04:03:36.617Z,79.43
2018-07-04T04:04:36.768Z,79.52
2018-07-04T04:05:36.921Z,79.43
2018-07-04T04:06:37.076Z,79.23
2018-07-04T04:07:37.226Z,79.23
2018-07-04T04:08:37.379Z,79.90
2018-07-04T04:09:37.531Z,80.47
2018-07-04T04:10:37.682Z,79.80
2018-07-04T04:11:37.834Z,80.66
2018-07-04T04:12:37.986Z,80.95
2018-07-04T04:13:38.140Z,80.28
2018-07-04T04:14:38.295Z,80.28
2018-07-04T04:15:38.442Z,79.99
2018-07-04T04:16:38.594Z,79.71
2018-07-04T04:17:38.745Z,79.71
2018-07-04T04:18:38.896Z,79.80
2018-07-04T04:19:39.049Z,79.52
2018-07-04T04:20:39.202Z,79.90
2018-07-04T04:21:39.355Z,79.71
2018-07-04T04:22:39.508Z,79.43
2018-07-04T04:23:39.658Z,79.04
2018-07-04T04:24:39.809Z,79.14
2018-07-04T04:25:39.963Z,79.14
2018-07-04T04:26:40.115Z,78.60
2018-07-04T04:27:40.269Z,78.60
2018-07-04T04:28:40.419Z,78.31
2018-07-04T04:29:40.570Z,78.31
2018-07-04T04:30:40.725Z,77.45
2018-07-04T04:31:40.874Z,78.13
2018-07-04T04:32:41.026Z,77.94
2018-07-04T04:33:41.176Z,77.94
2018-07-04T04:34:41.334Z,77.74
2018-07-04T04:35:41.488Z,77.17
2018-07-04T04:36:41.641Z,77.11
2018-07-04T04:37:41.795Z,77.01
2018-07-04T04:38:41.944Z,77.11
2018-07-04T04:39:42.098Z,77.50
2018-07-04T04:40:42.251Z,77.40
2018-07-04T04:41:42.403Z,76.25
2018-07-04T04:42:42.556Z,76.06
2018-07-04T04:43:42.710Z,75.52
2018-07-04T04:44:42.865Z,75.62
2018-07-04T04:45:43.030Z,74.85
2018-07-04T04:46:43.159Z,75.34
2018-07-04T04:47:43.312Z,74.05
2018-07-04T04:48:43.469Z,74.91
2018-07-04T04:49:43.619Z,75.01
2018-07-04T04:50:43.772Z,74.53
2018-07-04T04:51:43.926Z,74.57
2018-07-04T04:52:44.077Z,73.90
2018-07-04T04:53:44.233Z,73.04
2018-07-04T04:54:44.428Z,72.56
2018-07-04T04:55:44.537Z,72.18
2018-07-04T04:56:44.688Z,72.47
2018-07-04T04:57:44.844Z,72.12
2018-07-04T04:58:44.995Z,71.16
2018-07-04T04:59:45.148Z,71.26
2018-07-04T05:00:45.299Z,71.16
2018-07-04T05:01:45.453Z,71.16
2018-07-04T05:02:45.607Z,70.11
2018-07-04T05:03:45.763Z,70.78
2018-07-04T05:04:45.916Z,70.68
2018-07-04T05:05:46.071Z,70.59
2018-07-04T05:06:46.223Z,70.78
2018-07-04T05:07:46.384Z,70.43
2018-07-04T05:08:46.529Z,71.30
2018-07-04T05:09:46.681Z,70.15
2018-07-04T05:10:46.836Z,70.05
2018-07-04T05:11:46.991Z,69.48
2018-07-04T05:12:47.143Z,69.76
2018-07-04T05:13:47.297Z,70.28
2018-07-04T05:14:47.449Z,69.70
2018-07-04T05:15:47.700Z,68.94
2018-07-04T05:16:47.761Z,69.03
2018-07-04T05:17:47.914Z,69.03
2018-07-04T05:18:48.071Z,68.55
2018-07-04T05:19:48.224Z,67.98
2018-07-04T05:20:48.378Z,68.07
2018-07-04T05:21:48.532Z,68.17
2018-07-04T05:22:48.693Z,68.94
2018-07-04T05:23:48.838Z,68.65
2018-07-04T05:24:48.991Z,69.23
2018-07-04T05:25:49.143Z,69.60
2018-07-04T05:26:49.297Z,69.09
2018-07-04T05:27:49.452Z,69.00
2018-07-04T05:28:49.620Z,69.13
2018-07-04T05:29:49.759Z,68.65
2018-07-04T05:30:49.915Z,67.88
2018-07-04T05:31:50.066Z,67.25
2018-07-04T05:32:50.220Z,66.67
2018-07-04T05:33:50.375Z,66.58
2018-07-04T05:34:50.528Z,65.84
2018-07-04T05:35:50.683Z,66.80
2018-07-04T05:36:50.836Z,66.03
2018-07-04T05:37:50.991Z,65.36
2018-07-04T05:38:51.146Z,64.79
2018-07-04T05:39:51.302Z,64.40
2018-07-04T05:40:51.501Z,65.36
2018-07-04T05:41:51.610Z,66.00
2018-07-04T05:42:51.769Z,66.61
2018-07-04T05:43:51.921Z,66.71
2018-07-04T05:44:52.075Z,66.51
2018-07-04T05:45:52.227Z,66.22
2018-07-04T05:46:52.383Z,66.61
2018-07-04T05:47:52.539Z,66.35
2018-07-04T05:48:52.693Z,66.22
2018-07-04T05:49:52.848Z,65.30
2018-07-04T05:50:53.003Z,66.74
2018-07-04T05:51:53.157Z,65.88
2018-07-04T05:52:53.315Z,66.55
2018-07-04T05:53:53.468Z,66.06
2018-07-04T05:54:53.623Z,65.30
2018-07-04T05:55:53.777Z,66.26
2018-07-04T05:56:53.933Z,65.68
2018-07-04T05:57:54.090Z,64.25
2018-07-04T05:58:54.241Z,64.15
2018-07-04T05:59:54.399Z,62.84
2018-07-04T06:00:54.554Z,61.40
2018-07-04T06:01:54.707Z,60.92
2018-07-04T06:02:54.864Z,61.02
2018-07-04T06:03:55.020Z,60.92
2018-07-04T06:04:55.171Z,61.66
2018-07-04T06:05:55.323Z,61.85
2018-07-04T06:06:55.482Z,62.16
2018-07-04T06:07:55.638Z,62.07
2018-07-04T06:08:55.789Z,61.40
2018-07-04T06:09:55.947Z,61.11
2018-07-04T06:10:56.100Z,61.21
2018-07-04T06:11:56.256Z,61.81
2018-07-04T06:12:56.413Z,60.75
2018-07-04T06:13:56.569Z,61.52
2018-07-04T06:14:56.729Z,62.19
2018-07-04T06:15:56.880Z,62.58
2018-07-04T06:16:57.089Z,62.68
2018-07-04T06:17:57.195Z,61.52
2018-07-04T06:18:57.346Z,60.78
2018-07-04T06:19:57.503Z,60.50
2018-07-04T06:20:57.656Z,60.98
2018-07-04T06:21:57.813Z,61.08
2018-07-04T06:22:57.971Z,60.63
2018-07-04T06:23:58.127Z,60.69
2018-07-04T06:24:58.281Z,60.69
2018-07-04T06:25:58.438Z,59.86
2018-07-04T06:26:58.594Z,59.66
2018-07-04T06:27:58.751Z,59.95
2018-07-04T06:28:58.907Z,59.09
2018-07-04T06:29:59.061Z,59.50
2018-07-04T06:30:59.219Z,58.92
2018-07-04T06:31:59.375Z,59.02
2018-07-04T06:32:59.531Z,58.06
2018-07-04T06:33:59.687Z,58.42
2018-07-04T06:34:59.841Z,59.47
2018-07-04T06:35:59.998Z,58.15
2018-07-04T06:37:00.154Z,58.06
2018-07-04T06:38:00.310Z,57.29
2018-07-04T06:39:00.470Z,57.48
2018-07-04T06:40:00.624Z,57.29
2018-07-04T06:41:00.782Z,57.97
2018-07-04T06:42:00.938Z,58.25
2018-07-04T06:43:01.095Z,58.35
2018-07-04T06:44:01.248Z,57.42
2018-07-04T06:45:01.404Z,56.93
2018-07-04T06:46:01.559Z,56.84
2018-07-04T06:47:01.714Z,57.90
2018-07-04T06:48:01.874Z,56.74
2018-07-04T06:49:02.135Z,56.58
2018-07-04T06:50:02.187Z,56.10
2018-07-04T06:51:02.347Z,56.38
2018-07-04T06:52:02.500Z,55.83
2018-07-04T06:53:02.657Z,55.74
2018-07-04T06:54:02.820Z,54.78
2018-07-04T06:55:02.968Z,54.00
2018-07-04T06:56:03.128Z,53.43
2018-07-04T06:57:03.282Z,54.78
2018-07-04T06:58:03.441Z,54.10
2018-07-04T06:59:03.595Z,54.20
2018-07-04T07:00:03.755Z,54.27
2018-07-04T07:01:03.909Z,54.68
2018-07-04T07:02:04.068Z,54.00
2018-07-04T07:03:04.224Z,53.91
2018-07-04T07:04:04.381Z,54.97
2018-07-04T07:05:04.540Z,54.32
2018-07-04T07:06:04.699Z,54.13
2018-07-04T07:07:04.857Z,53.74
2018-07-04T07:08:05.017Z,53.55
2018-07-04T07:09:05.179Z,53.45
2018-07-04T07:10:05.329Z,53.45
2018-07-04T07:11:05.484Z,53.45
2018-07-04T07:12:05.643Z,53.53
2018-07-04T07:13:05.796Z,53.43
2018-07-04T07:14:05.953Z,54.52
2018-07-04T07:15:06.112Z,53.45
2018-07-04T07:16:06.271Z,53.17
2018-07-04T07:17:06.427Z,52.87
2018-07-04T07:18:06.583Z,53.07
2018-07-04T07:19:06.742Z,52.30
2018-07-04T07:20:06.897Z,52.91
2018-07-04T07:21:07.061Z,52.23
2018-07-04T07:22:07.212Z,52.52
2018-07-04T07:23:07.369Z,52.64
2018-07-04T07:24:07.527Z,52.25
2018-07-04T07:25:07.685Z,51.68
2018-07-04T07:26:07.838Z,51.00
2018-07-04T07:27:07.995Z,50.93
2018-07-04T07:28:08.156Z,51.39
2018-07-04T07:29:08.311Z,52.19
2018-07-04T07:30:08.469Z,51.99
2018-07-04T07:31:08.626Z,51.03
2018-07-04T07:32:08.790Z,50.81
2018-07-04T07:33:08.943Z,51.58
2018-07-04T07:34:09.177Z,51.87
2018-07-04T07:35:09.258Z,51.48
2018-07-04T07:36:09.414Z,52.37
2018-07-04T07:37:09.575Z,51.05
2018-07-04T07:38:09.735Z,50.76
2018-07-04T07:39:09.891Z,50.47
2018-07-04T07:40:10.049Z,51.56
2018-07-04T07:41:10.207Z,50.57
2018-07-04T07:42:10.367Z,50.01
2018-07-04T07:43:10.524Z,50.11
2018-07-04T07:44:10.682Z,48.95
2018-07-04T07:45:10.840Z,49.34
2018-07-04T07:46:10.996Z,49.15
2018-07-04T07:47:11.161Z,48.95
2018-07-04T07:48:11.316Z,48.57
2018-07-04T07:49:11.476Z,48.30
2018-07-04T07:50:11.633Z,48.28
2018-07-04T07:51:11.792Z,48.11
2018-07-04T07:52:11.951Z,47.81
2018-07-04T07:53:12.108Z,47.65
2018-07-04T07:54:12.287Z,47.55
2018-07-04T07:55:12.425Z,47.33
2018-07-04T07:56:12.583Z,47.91
2018-07-04T07:57:12.742Z,47.81
2018-07-04T07:58:12.901Z,47.43
2018-07-04T07:59:13.060Z,46.97
2018-07-04T08:00:13.219Z,46.68
2018-07-04T08:01:13.380Z,46.42
2018-07-04T08:02:13.537Z,45.54
2018-07-04T08:03:13.696Z,45.74
2018-07-04T08:04:13.856Z,45.28
2018-07-04T08:05:14.014Z,45.57
2018-07-04T08:06:14.173Z,45.18
2018-07-04T08:07:14.334Z,45.01
2018-07-04T08:08:14.493Z,44.43
2018-07-04T08:09:14.654Z,43.75
2018-07-04T08:10:14.816Z,43.96
2018-07-04T08:11:14.977Z,43.29
2018-07-04T08:12:15.130Z,42.92
2018-07-04T08:13:15.289Z,42.44
2018-07-04T08:14:15.448Z,42.34
2018-07-04T08:15:15.609Z,42.46
2018-07-04T08:16:15.767Z,42.26
2018-07-04T08:17:15.927Z,41.88
2018-07-04T08:18:16.087Z,41.70
2018-07-04T08:19:16.248Z,40.33
2018-07-04T08:20:16.420Z,40.26
2018-07-04T08:21:16.586Z,39.98
2018-07-04T08:22:16.745Z,39.88
2018-07-04T08:23:16.902Z,40.29
2018-07-04T08:24:17.067Z,40.97
2018-07-04T08:25:17.225Z,41.08
2018-07-04T08:26:17.433Z,40.31
2018-07-04T08:27:17.554Z,39.84
2018-07-04T08:28:17.711Z,38.57
2018-07-04T08:29:17.870Z,38.19
2018-07-04T08:30:18.031Z,38.77
2018-07-04T08:31:18.196Z,36.73
2018-07-04T08:32:18.357Z,37.32
2018-07-04T08:33:18.515Z,37.41
2018-07-04T08:34:18.678Z,37.20
2018-07-04T08:35:18.842Z,37.39
2018-07-04T08:36:19.004Z,36.73
2018-07-04T08:37:19.164Z,36.63
2018-07-04T08:38:19.326Z,36.32
2018-07-04T08:39:19.514Z,37.20
2018-07-04T08:40:19.651Z,38.17
2018-07-04T08:41:19.812Z,36.91
2018-07-04T08:42:19.973Z,36.40
2018-07-04T08:43:20.135Z,36.04
2018-07-04T08:44:20.296Z,36.42
2018-07-04T08:45:20.457Z,37.39
2018-07-04T08:46:20.619Z,37.01
2018-07-04T08:47:20.782Z,36.15
2018-07-04T08:48:20.942Z,35.37
2018-07-04T08:49:21.103Z,35.27
2018-07-04T08:50:21.267Z,34.80
2018-07-04T08:51:21.429Z,34.22
2018-07-04T08:52:21.590Z,33.91
2018-07-04T08:53:21.753Z,34.30
2018-07-04T08:54:21.916Z,35.08
2018-07-04T08:55:22.077Z,35.08
2018-07-04T08:56:22.242Z,34.88
2018-07-04T08:57:22.402Z,34.69
2018-07-04T08:58:22.633Z,34.42
2018-07-04T08:59:22.727Z,34.53
2018-07-04T09:00:22.894Z,34.90
2018-07-04T09:01:23.051Z,34.90
2018-07-04T09:02:23.210Z,34.90
2018-07-04T09:03:23.376Z,35.49
2018-07-04T09:04:23.535Z,36.38
2018-07-04T09:05:23.698Z,35.21
2018-07-04T09:06:23.865Z,34.94
2018-07-04T09:07:24.025Z,34.55
2018-07-04T09:08:24.189Z,33.85
2018-07-04T09:09:24.348Z,34.33
2018-07-04T09:10:24.512Z,34.42
2018-07-04T09:11:24.679Z,34.52
2018-07-04T09:12:24.840Z,34.61
2018-07-04T09:13:25.001Z,35.10
2018-07-04T09:14:25.169Z,35.29
2018-07-04T09:15:25.334Z,35.39
2018-07-04T09:16:25.527Z,35.49
2018-07-04T09:17:25.650Z,35.29
2018-07-04T09:18:25.815Z,35.19
2018-07-04T09:19:25.979Z,35.10
2018-07-04T09:20:26.141Z,34.80
2018-07-04T09:21:26.304Z,34.70
2018-07-04T09:22:26.467Z,33.53
2018-07-04T09:23:26.628Z,32.86
2018-07-04T09:24:26.819Z,33.25
2018-07-04T09:25:26.954Z,33.26
2018-07-04T09:26:27.118Z,34.92
2018-07-04T09:27:27.422Z,35.71
2018-07-04T09:28:27.448Z,34.55
2018-07-04T09:29:27.605Z,33.69
2018-07-04T09:30:27.768Z,33.59
2018-07-04T09:31:27.930Z,32.91
2018-07-04T09:32:28.092Z,32.52
2018-07-04T09:33:28.258Z,32.23
2018-07-04T09:34:28.422Z,32.03
2018-07-04T09:35:28.583Z,31.06
2018-07-04T09:36:28.747Z,31.93
2018-07-04T09:37:28.910Z,32.53
2018-07-04T09:38:29.140Z,32.24
2018-07-04T09:39:29.249Z,31.46
2018-07-04T09:40:29.411Z,29.32
2018-07-04T09:41:29.573Z,29.33
2018-07-04T09:42:29.739Z,29.43
2018-07-04T09:43:29.899Z,29.44
2018-07-04T09:44:30.063Z,29.36
2018-07-04T09:45:30.225Z,27.95
2018-07-04T09:46:30.391Z,28.34
2018-07-04T09:47:30.551Z,28.36
2018-07-04T09:48:30.715Z,28.45
2018-07-04T09:49:30.921Z,29.83
2018-07-04T09:50:31.041Z,29.15
2018-07-04T09:51:31.209Z,28.00
2018-07-04T09:52:31.364Z,27.91
2018-07-04T09:53:31.530Z,28.49
2018-07-04T09:54:31.692Z,27.62
2018-07-04T09:55:31.855Z,27.73
2018-07-04T09:56:32.019Z,26.56
2018-07-04T09:57:32.186Z,27.44
2018-07-04T09:58:32.347Z,27.64
2018-07-04T09:59:32.513Z,26.54
2018-07-04T10:00:32.676Z,26.76
2018-07-04T10:01:32.841Z,26.46
2018-07-04T10:02:33.003Z,26.46
2018-07-04T10:03:33.168Z,26.20
2018-07-04T10:04:33.336Z,26.40
2018-07-04T10:05:33.496Z,26.21
2018-07-04T10:06:33.661Z,26.21
2018-07-04T10:07:33.829Z,25.23
2018-07-04T10:08:33.991Z,23.76
2018-07-04T10:09:34.154Z,24.16
2018-07-04T10:10:34.317Z,23.37
2018-07-04T10:11:34.480Z,24.54
2018-07-04T10:12:34.698Z,24.43
2018-07-04T10:13:34.809Z,25.33
2018-07-04T10:14:34.974Z,25.23
2018-07-04T10:15:35.140Z,25.13
2018-07-04T10:16:35.304Z,25.23
2018-07-04T10:17:35.467Z,25.33
2018-07-04T10:18:35.631Z,25.62
2018-07-04T10:19:35.798Z,25.23
2018-07-04T10:20:35.957Z,25.04
2018-07-04T10:21:36.117Z,24.93
2018-07-04T10:22:36.284Z,24.64
2018-07-04T10:23:36.446Z,24.35
2018-07-04T10:24:36.667Z,24.84
2018-07-04T10:25:36.771Z,24.93
2018-07-04T10:26:36.941Z,25.22
2018-07-04T10:27:37.104Z,25.22
2018-07-04T10:28:37.275Z,26.88
2018-07-04T10:29:37.440Z,26.49
2018-07-04T10:30:37.608Z,28.23
2018-07-04T10:31:37.770Z,27.27
2018-07-04T10:32:37.935Z,26.18
2018-07-04T10:33:38.097Z,25.11
2018-07-04T10:34:38.262Z,26.18
2018-07-04T10:35:38.428Z,26.68
2018-07-04T10:36:38.600Z,26.00
2018-07-04T10:37:38.758Z,27.36
2018-07-04T10:38:38.921Z,27.75
2018-07-04T10:39:39.084Z,26.78
2018-07-04T10:40:39.255Z,26.39
2018-07-04T10:41:39.419Z,26.00
2018-07-04T10:42:39.582Z,26.48
2018-07-04T10:43:39.746Z,26.09
2018-07-04T10:44:39.954Z,25.89
2018-07-04T10:45:40.075Z,26.28
2018-07-04T10:46:40.240Z,26.18
2018-07-04T10:47:40.408Z,26.38
2018-07-04T10:48:40.569Z,26.48
2018-07-04T10:49:40.733Z,26.56
2018-07-04T10:50:40.898Z,26.74
2018-07-04T10:51:41.063Z,27.52
2018-07-04T10:52:41.227Z,27.72
2018-07-04T10:53:41.394Z,27.80
2018-07-04T10:54:41.557Z,27.23
2018-07-04T10:55:41.722Z,27.33
2018-07-04T10:56:41.889Z,26.56
2018-07-04T10:57:42.052Z,26.17
2018-07-04T10:58:42.219Z,26.00
2018-07-04T10:59:42.383Z,25.33
2018-07-04T11:00:42.545Z,24.15
2018-07-04T11:01:42.709Z,24.84
2018-07-04T11:02:42.878Z,24.64
2018-07-04T11:03:43.039Z,25.34
2018-07-04T11:04:43.207Z,25.23
2018-07-04T11:05:43.358Z,25.92
2018-07-04T11:06:43.531Z,25.34
2018-07-04T11:07:43.712Z,25.93
2018-07-04T11:08:43.861Z,24.47
2018-07-04T11:09:44.026Z,24.27
2018-07-04T11:10:44.190Z,24.16
2018-07-04T11:11:44.358Z,24.35
2018-07-04T11:12:44.523Z,24.44
2018-07-04T11:13:44.686Z,25.32
2018-07-04T11:14:44.851Z,24.93
2018-07-04T11:15:45.019Z,24.24
2018-07-04T11:16:45.244Z,25.23
2018-07-04T11:17:45.347Z,25.02
2018-07-04T11:18:45.513Z,25.31
2018-07-04T11:19:45.676Z,25.21
2018-07-04T11:20:45.839Z,25.32
2018-07-04T11:21:46.003Z,25.61
2018-07-04T11:22:46.172Z,26.89
2018-07-04T11:23:46.339Z,26.32
2018-07-04T11:24:46.501Z,25.05
2018-07-04T11:25:46.666Z,24.75
2018-07-04T11:26:46.830Z,25.04
2018-07-04T11:27:46.993Z,25.54
2018-07-04T11:28:47.161Z,26.90
2018-07-04T11:29:47.325Z,25.13
2018-07-04T11:30:47.489Z,25.44
2018-07-04T11:31:47.656Z,25.72
2018-07-04T11:32:47.820Z,26.11
2018-07-04T11:33:47.984Z,25.71
2018-07-04T11:34:48.151Z,25.81
2018-07-04T11:35:48.321Z,26.18
2018-07-04T11:36:48.487Z,26.68
2018-07-04T11:37:48.655Z,26.79
2018-07-04T11:38:48.821Z,25.33
2018-07-04T11:39:48.988Z,25.24
2018-07-04T11:40:49.156Z,25.45
2018-07-04T11:41:49.331Z,24.19
2018-07-04T11:42:49.476Z,24.27
2018-07-04T11:43:49.642Z,24.57
2018-07-04T11:44:49.807Z,24.96
2018-07-04T11:45:49.970Z,26.04
2018-07-04T11:46:50.141Z,25.45
2018-07-04T11:47:50.300Z,24.96
2018-07-04T11:48:50.468Z,24.85
2018-07-04T11:49:50.632Z,24.55
2018-07-04T11:50:50.796Z,24.95
2018-07-04T11:51:50.963Z,26.23
2018-07-04T11:52:51.125Z,24.47
2018-07-04T11:53:51.290Z,24.58
2018-07-04T11:54:51.457Z,24.37
2018-07-04T11:55:51.622Z,24.57
2018-07-04T11:56:51.786Z,25.44
2018-07-04T11:57:51.949Z,25.05
2018-07-04T11:58:52.118Z,24.85
2018-07-04T11:59:52.283Z,24.85
2018-07-04T12:00:52.447Z,25.05
2018-07-04T12:01:52.628Z,24.96
2018-07-04T12:02:52.779Z,25.74
2018-07-04T12:03:52.943Z,25.37
2018-07-04T12:04:53.110Z,24.68
2018-07-04T12:05:53.273Z,23.99
2018-07-04T12:06:53.437Z,24.30
2018-07-04T12:07:53.604Z,23.50
2018-07-04T12:08:53.770Z,23.69
2018-07-04T12:09:53.935Z,24.08
2018-07-04T12:10:54.115Z,24.46
2018-07-04T12:11:54.266Z,24.66
2018-07-04T12:12:54.431Z,24.48
2018-07-04T12:13:54.596Z,25.18
2018-07-04T12:14:54.760Z,25.28
2018-07-04T12:15:54.931Z,24.51
2018-07-04T12:16:55.090Z,24.03
2018-07-04T12:17:55.253Z,23.84
2018-07-04T12:18:55.436Z,22.95
2018-07-04T12:19:55.584Z,23.05
2018-07-04T12:20:55.755Z,23.65
2018-07-04T12:21:55.917Z,23.02
2018-07-04T12:22:56.080Z,22.81
2018-07-04T12:23:56.244Z,22.71
2018-07-04T12:24:56.412Z,24.09
2018-07-04T12:25:56.576Z,23.50
2018-07-04T12:26:56.788Z,23.32
2018-07-04T12:27:56.910Z,22.55
2018-07-04T12:28:57.076Z,23.22
2018-07-04T12:29:57.240Z,22.94
2018-07-04T12:30:57.405Z,21.86
2018-07-04T12:31:57.610Z,22.34
2018-07-04T12:32:57.736Z,22.61
2018-07-04T12:33:57.901Z,23.09
2018-07-04T12:34:58.069Z,22.91
2018-07-04T12:35:58.235Z,23.71
2018-07-04T12:36:58.416Z,22.33
2018-07-04T12:37:58.567Z,22.52
2018-07-04T12:38:58.735Z,22.42
2018-07-04T12:39:58.895Z,22.23
2018-07-04T12:40:59.064Z,22.55
2018-07-04T12:41:59.229Z,22.45
2018-07-04T12:42:59.392Z,22.95
2018-07-04T12:43:59.560Z,23.74
2018-07-04T12:44:59.729Z,23.14
2018-07-04T12:45:59.895Z,22.96
2018-07-04T12:47:00.108Z,22.36
2018-07-04T12:48:00.225Z,22.74
2018-07-04T12:49:00.391Z,22.94
2018-07-04T12:50:00.559Z,22.44
2018-07-04T12:51:00.744Z,22.62
2018-07-04T12:52:00.891Z,23.50
2018-07-04T12:53:01.059Z,23.31
2018-07-04T12:54:01.281Z,23.60
2018-07-04T12:55:01.387Z,23.69